Time;durP1;ratioP1;P1;durP2;ratioP2;P2;SDS_P1;SDS_P2;PMS_P1;PMS_P2;Temp;Humidity;BMP_temperature;BMP_pressure;BME280_temperature;BME280_humidity;BME280_pressure;Samples;Min_cycle;Max_cycle;Signal;HPM_P1;HPM_P2
2021/12/03 00:01:59;;;;;;;8.45;3.03;;;;;;;1.85;100.00;100687.69;5114765;28;20062;-52
2021/12/03 00:04:29;;;;;;;14.90;3.50;;;;;;;1.77;100.00;100692.22;5117451;28;20059;-52
2021/12/03 00:06:58;;;;;;;9.55;3.28;;;;;;;1.78;100.00;100696.56;5116867;28;20116;-52
2021/12/03 00:09:26;;;;;;;9.57;3.10;;;;;;;1.66;100.00;100697.72;5116477;28;20056;-51
2021/12/03 00:11:54;;;;;;;8.82;2.80;;;;;;;1.65;100.00;100692.50;5117246;28;20056;-52
2021/12/03 00:14:22;;;;;;;13.65;2.95;;;;;;;1.70;100.00;100676.69;5116400;28;20528;-52
2021/12/03 00:16:51;;;;;;;15.80;2.72;;;;;;;1.71;100.00;100674.03;5115954;28;20060;-52
2021/12/03 00:19:19;;;;;;;9.10;2.45;;;;;;;1.73;100.00;100664.44;5116454;28;20452;-52
2021/12/03 00:21:48;;;;;;;11.98;3.17;;;;;;;1.84;100.00;100658.94;5116792;27;20056;-52
2021/12/03 00:24:16;;;;;;;8.90;2.50;;;;;;;1.98;100.00;100661.22;5116823;28;20048;-52
2021/12/03 00:26:45;;;;;;;10.40;3.00;;;;;;;2.06;100.00;100663.66;5115821;28;20060;-52
2021/12/03 00:29:13;;;;;;;9.85;2.55;;;;;;;2.12;100.00;100661.75;5115792;28;20056;-52
2021/12/03 00:31:41;;;;;;;9.48;2.58;;;;;;;2.13;100.00;100667.84;5115676;28;20055;-51
2021/12/03 00:34:10;;;;;;;7.63;2.40;;;;;;;2.17;100.00;100667.72;5116570;28;20051;-52
2021/12/03 00:36:38;;;;;;;14.77;2.72;;;;;;;2.26;100.00;100663.16;5115598;28;20534;-52
2021/12/03 00:39:08;;;;;;;11.75;2.95;;;;;;;2.32;100.00;100670.84;5115518;28;20056;-52
2021/12/03 00:41:46;;;;;;;7.20;2.45;;;;;;;2.38;100.00;100662.84;5116397;28;20055;-52
2021/12/03 00:44:14;;;;;;;11.43;2.40;;;;;;;2.39;100.00;100656.72;5116707;28;20051;-52
2021/12/03 00:46:42;;;;;;;10.05;2.28;;;;;;;2.50;100.00;100665.13;5115791;28;20410;-52
2021/12/03 00:49:10;;;;;;;8.77;2.17;;;;;;;2.55;100.00;100662.41;5115405;28;20055;-52
2021/12/03 00:51:38;;;;;;;11.07;2.40;;;;;;;2.55;100.00;100673.72;5115858;28;20410;-52
2021/12/03 00:54:09;;;;;;;10.13;2.78;;;;;;;2.58;100.00;100671.03;5116454;28;20055;-52
2021/12/03 00:56:37;;;;;;;8.52;2.80;;;;;;;2.67;100.00;100674.31;5114882;28;20531;-52
2021/12/03 00:59:05;;;;;;;9.07;2.13;;;;;;;2.72;100.00;100677.66;5115207;28;20047;-52
2021/12/03 01:01:34;;;;;;;6.65;2.30;;;;;;;2.74;100.00;100681.97;5115187;28;20066;-52
2021/12/03 01:04:03;;;;;;;5.10;1.85;;;;;;;2.80;100.00;100667.84;5114855;28;20066;-51
2021/12/03 01:06:31;;;;;;;8.70;1.92;;;;;;;2.86;100.00;100651.06;5116225;28;20395;-52
2021/12/03 01:08:59;;;;;;;5.30;1.92;;;;;;;2.95;100.00;100640.34;5115021;28;20428;-52
2021/12/03 01:11:29;;;;;;;12.38;2.42;;;;;;;2.93;100.00;100643.00;5115835;28;20105;-52
2021/12/03 01:13:59;;;;;;;10.25;1.95;;;;;;;2.91;100.00;100634.34;5115908;28;20071;-52
2021/12/03 01:16:28;;;;;;;13.07;2.30;;;;;;;2.98;100.00;100620.16;5115550;28;20052;-49
2021/12/03 01:18:58;;;;;;;7.30;2.78;;;;;;;3.01;100.00;100613.09;5115079;28;20055;-52
2021/12/03 01:21:27;;;;;;;8.50;1.88;;;;;;;3.05;100.00;100610.34;5115175;28;20498;-52
2021/12/03 01:23:55;;;;;;;11.48;2.40;;;;;;;3.04;100.00;100607.78;5114735;28;20533;-52
2021/12/03 01:26:24;;;;;;;11.48;2.10;;;;;;;3.06;100.00;100617.31;5114845;28;20066;-52
2021/12/03 01:28:54;;;;;;;4.60;1.65;;;;;;;3.10;100.00;100623.31;5114790;28;20066;-52
2021/12/03 01:31:22;;;;;;;11.30;2.90;;;;;;;3.17;100.00;100614.38;5115088;28;20056;-49
2021/12/03 01:33:50;;;;;;;9.02;1.95;;;;;;;3.26;100.00;100611.50;5114736;28;20113;-52
2021/12/03 01:36:18;;;;;;;7.88;2.40;;;;;;;3.28;100.00;100633.28;5114633;28;20499;-50
2021/12/03 01:38:46;;;;;;;10.50;2.00;;;;;;;3.31;100.00;100627.94;5114593;28;20055;-52
2021/12/03 01:41:15;;;;;;;3.35;2.10;;;;;;;3.29;100.00;100614.00;5114842;28;20499;-52
2021/12/03 01:43:44;;;;;;;6.45;2.17;;;;;;;3.38;100.00;100632.97;5115534;28;20059;-52
2021/12/03 01:46:16;;;;;;;6.63;1.90;;;;;;;3.41;100.00;100622.41;5114628;28;20056;-50
2021/12/03 01:48:45;;;;;;;11.80;2.53;;;;;;;3.51;100.00;100618.59;5115027;28;20068;-52
2021/12/03 01:51:13;;;;;;;13.00;1.92;;;;;;;3.56;100.00;100621.06;5115414;28;20073;-51
2021/12/03 01:53:41;;;;;;;8.65;2.20;;;;;;;3.61;100.00;100614.75;5114605;28;20396;-52
2021/12/03 01:56:12;;;;;;;6.80;2.03;;;;;;;3.61;100.00;100601.66;5114419;28;20410;-51
2021/12/03 01:58:41;;;;;;;8.65;2.10;;;;;;;3.64;100.00;100612.03;5114430;28;20515;-51
2021/12/03 02:01:11;;;;;;;8.73;2.10;;;;;;;3.71;100.00;100616.19;5114408;28;20063;-52
2021/12/03 02:03:43;;;;;;;6.22;2.20;;;;;;;3.75;100.00;100618.72;5114134;28;20051;-52
2021/12/03 02:06:13;;;;;;;6.90;1.98;;;;;;;3.72;100.00;100612.66;5115567;28;20058;-52
2021/12/03 02:08:42;;;;;;;11.05;2.53;;;;;;;3.72;100.00;100612.66;5114171;28;20515;-52
2021/12/03 02:11:11;;;;;;;9.55;2.50;;;;;;;3.71;100.00;100605.69;5114519;28;20425;-52
2021/12/03 02:13:40;;;;;;;10.02;2.30;;;;;;;3.71;100.00;100596.97;5114995;28;20052;-50
2021/12/03 02:16:10;;;;;;;10.68;3.22;;;;;;;3.75;100.00;100611.72;5114253;28;20051;-52
2021/12/03 02:18:38;;;;;;;4.22;1.90;;;;;;;3.84;100.00;100607.94;5114212;28;20051;-52
2021/12/03 02:21:09;;;;;;;9.15;2.20;;;;;;;3.81;100.00;100605.41;5114652;28;20058;-52
2021/12/03 02:23:38;;;;;;;7.13;2.40;;;;;;;3.74;100.00;100598.66;5114614;28;20056;-52
2021/12/03 02:26:07;;;;;;;7.13;2.20;;;;;;;3.74;100.00;100601.28;5118657;28;20063;-50
2021/12/03 02:28:40;;;;;;;9.45;2.35;;;;;;;3.69;100.00;100602.25;5118178;28;20059;-51
2021/12/03 02:31:09;;;;;;;7.20;1.83;;;;;;;3.70;100.00;100588.25;5117897;27;20052;-49
2021/12/03 02:33:37;;;;;;;8.70;2.55;;;;;;;3.66;100.00;100576.13;5117787;28;20052;-51
2021/12/03 02:36:08;;;;;;;7.55;2.20;;;;;;;3.74;100.00;100567.16;5118314;28;20055;-51
2021/12/03 02:38:36;;;;;;;5.35;1.98;;;;;;;3.66;100.00;100563.00;5119045;28;20062;-50
2021/12/03 02:41:05;;;;;;;6.10;2.25;;;;;;;3.66;100.00;100549.88;5118247;28;20407;-50
2021/12/03 02:43:33;;;;;;;5.63;2.10;;;;;;;3.63;100.00;100543.88;5118798;28;20067;-49
2021/12/03 02:46:02;;;;;;;5.85;2.05;;;;;;;3.54;100.00;100534.56;5117833;27;20062;-49
2021/12/03 02:48:32;;;;;;;11.07;2.25;;;;;;;3.56;100.00;100547.63;5118415;28;20067;-49
2021/12/03 02:51:00;;;;;;;7.13;1.90;;;;;;;3.61;100.00;100543.09;5117780;28;20499;-52
2021/12/03 02:53:30;;;;;;;6.10;2.10;;;;;;;3.60;100.00;100530.88;5118527;28;20059;-50
2021/12/03 02:55:58;;;;;;;13.63;2.78;;;;;;;3.61;100.00;100524.72;5118163;28;20051;-50
2021/12/03 02:58:26;;;;;;;7.82;2.75;;;;;;;3.68;100.00;100519.25;5117762;28;20058;-50
2021/12/03 03:00:55;;;;;;;9.18;3.10;;;;;;;3.64;100.00;100520.22;5117599;28;20056;-51
2021/12/03 03:03:24;;;;;;;8.77;1.70;;;;;;;3.60;100.00;100516.00;5118392;28;20130;-51
2021/12/03 03:05:56;;;;;;;7.95;2.00;;;;;;;3.61;100.00;100504.59;5118357;28;20110;-52
2021/12/03 03:08:25;;;;;;;9.43;1.80;;;;;;;3.66;100.00;100497.41;5118112;28;20055;-52
2021/12/03 03:10:56;;;;;;;6.90;2.05;;;;;;;3.65;100.00;100477.34;5118298;28;20062;-52
2021/12/03 03:13:25;;;;;;;4.93;1.55;;;;;;;3.65;100.00;100490.47;5118005;28;20056;-52
2021/12/03 03:15:53;;;;;;;7.15;2.10;;;;;;;3.66;100.00;100486.91;5118078;28;20078;-52
2021/12/03 03:18:24;;;;;;;14.35;2.17;;;;;;;3.69;100.00;100484.19;5118161;28;20055;-52
2021/12/03 03:20:54;;;;;;;12.05;1.50;;;;;;;3.76;100.00;100478.75;5118079;28;20051;-51
2021/12/03 03:23:23;;;;;;;5.28;2.00;;;;;;;3.71;100.00;100468.41;5117429;28;20487;-51
2021/12/03 03:25:52;;;;;;;7.82;1.63;;;;;;;3.79;100.00;100471.63;5117385;28;20051;-52
2021/12/03 03:28:22;;;;;;;9.15;2.20;;;;;;;3.84;100.00;100463.59;5117428;28;20051;-52
2021/12/03 03:30:53;;;;;;;7.50;2.42;;;;;;;3.83;100.00;100460.13;5117897;28;20055;-52
2021/12/03 03:33:22;;;;;;;5.88;1.83;;;;;;;3.79;100.00;100452.41;5116652;28;20052;-49
2021/12/03 03:35:50;;;;;;;8.43;1.60;;;;;;;3.82;100.00;100447.06;5116660;28;20056;-52
2021/12/03 03:38:19;;;;;;;5.68;1.20;;;;;;;3.85;100.00;100439.06;5117019;28;20062;-52
2021/12/03 03:40:48;;;;;;;10.70;1.83;;;;;;;3.93;100.00;100425.69;5117607;28;20135;-52
2021/12/03 03:43:17;;;;;;;7.65;1.50;;;;;;;3.99;100.00;100426.31;5117248;28;20063;-52
2021/12/03 03:45:47;;;;;;;5.72;3.45;;;;;;;3.92;100.00;100414.34;5117024;28;20051;-50
2021/12/03 03:48:16;;;;;;;4.78;1.67;;;;;;;3.94;100.00;100416.91;5117052;28;20060;-52
2021/12/03 03:50:45;;;;;;;13.70;1.90;;;;;;;3.98;100.00;100402.75;5116595;28;20062;-52
2021/12/03 03:53:13;;;;;;;12.40;3.15;;;;;;;3.91;100.00;100399.47;5116335;28;20066;-51
2021/12/03 03:55:41;;;;;;;15.05;2.13;;;;;;;3.96;100.00;100394.06;5117349;28;20089;-51
2021/12/03 03:58:10;;;;;;;9.48;1.92;;;;;;;3.93;100.00;100392.41;5116669;28;20055;-51
2021/12/03 04:00:41;;;;;;;3.97;1.58;;;;;;;3.97;100.00;100378.28;5116620;28;20494;-52
2021/12/03 04:03:11;;;;;;;5.97;1.30;;;;;;;4.02;100.00;100375.50;5116121;28;20094;-52
2021/12/03 04:05:40;;;;;;;8.35;1.40;;;;;;;4.06;100.00;100375.28;5117441;27;20055;-52
2021/12/03 04:08:09;;;;;;;8.05;1.42;;;;;;;4.12;100.00;100368.09;5116235;28;20139;-52
2021/12/03 04:10:37;;;;;;;7.10;1.80;;;;;;;4.13;100.00;100360.16;5116463;28;20066;-51
2021/12/03 04:13:05;;;;;;;12.65;1.95;;;;;;;4.14;100.00;100358.44;5116469;28;20055;-52
2021/12/03 04:15:33;;;;;;;7.78;1.67;;;;;;;4.16;100.00;100353.97;5116030;28;20058;-52
2021/12/03 04:18:01;;;;;;;9.57;1.55;;;;;;;4.19;100.00;100348.59;5115978;28;20054;-52
2021/12/03 04:20:31;;;;;;;7.30;2.08;;;;;;;4.23;100.00;100344.94;5116518;28;20051;-52
2021/12/03 04:22:59;;;;;;;10.15;1.80;;;;;;;4.28;100.00;100337.72;5116259;28;20052;-52
2021/12/03 04:25:28;;;;;;;5.93;1.98;;;;;;;4.32;100.00;100323.56;5115868;28;20052;-52
2021/12/03 04:27:56;;;;;;;6.13;1.40;;;;;;;4.32;100.00;100318.31;5115975;28;20510;-52
2021/12/03 04:30:27;;;;;;;10.10;1.60;;;;;;;4.39;100.00;100319.78;5116974;28;20070;-52
2021/12/03 04:32:56;;;;;;;9.20;1.70;;;;;;;4.43;100.00;100307.38;5115543;28;20056;-58
2021/12/03 04:35:26;;;;;;;14.35;1.70;;;;;;;4.50;100.00;100289.59;5116201;28;20056;-52
2021/12/03 04:37:58;;;;;;;8.60;1.73;;;;;;;4.53;100.00;100292.13;5115614;28;20549;-52
2021/12/03 04:40:29;;;;;;;5.85;1.50;;;;;;;4.56;100.00;100289.38;5115624;28;20060;-52
2021/12/03 04:42:57;;;;;;;7.18;1.48;;;;;;;4.62;100.00;100281.22;5115305;28;20515;-52
2021/12/03 04:45:27;;;;;;;8.70;1.95;;;;;;;4.70;100.00;100271.25;5115507;28;20055;-51
2021/12/03 04:47:57;;;;;;;7.88;1.50;;;;;;;4.78;100.00;100265.69;5114701;27;20067;-50
2021/12/03 04:50:29;;;;;;;7.82;1.50;;;;;;;4.85;100.00;100261.88;5115139;28;20062;-52
2021/12/03 04:52:58;;;;;;;9.10;1.70;;;;;;;4.87;100.00;100261.81;5115197;28;20074;-52
2021/12/03 04:55:28;;;;;;;8.13;1.73;;;;;;;4.86;100.00;100260.09;5115343;28;20059;-52
2021/12/03 04:57:56;;;;;;;5.80;1.70;;;;;;;4.89;100.00;100249.44;5115268;28;20051;-50
2021/12/03 05:00:30;;;;;;;13.57;2.20;;;;;;;4.98;100.00;100256.97;5115414;28;20078;-52
2021/12/03 05:03:00;;;;;;;10.13;2.03;;;;;;;4.96;100.00;100249.13;5114914;28;20056;-49
2021/12/03 05:05:32;;;;;;;7.28;1.80;;;;;;;4.95;100.00;100244.78;5115126;28;20498;-51
2021/12/03 05:08:04;;;;;;;12.93;2.22;;;;;;;4.99;100.00;100229.72;5115795;28;20052;-52
2021/12/03 05:10:33;;;;;;;6.70;1.73;;;;;;;4.99;100.00;100224.47;5116180;28;20060;-50
2021/12/03 05:13:04;;;;;;;10.13;2.17;;;;;;;4.97;100.00;100213.19;5115344;28;20051;-52
2021/12/03 05:15:33;;;;;;;12.05;2.00;;;;;;;5.00;100.00;100213.91;5115036;28;20050;-52
2021/12/03 05:18:01;;;;;;;13.90;2.33;;;;;;;5.02;100.00;100198.06;5114949;28;20127;-50
2021/12/03 05:20:30;;;;;;;12.88;2.42;;;;;;;5.00;100.00;100190.22;5115092;28;20066;-52
2021/12/03 05:22:58;;;;;;;12.05;2.33;;;;;;;4.99;100.00;100185.03;5114892;28;20553;-52
2021/12/03 05:25:28;;;;;;;11.95;2.05;;;;;;;4.98;100.00;100191.25;5114865;28;20503;-52
2021/12/03 05:27:57;;;;;;;9.35;2.33;;;;;;;4.95;100.00;100180.84;5114527;28;20652;-51
2021/12/03 05:30:25;;;;;;;9.75;2.28;;;;;;;4.95;100.00;100179.06;5115368;28;20090;-52
2021/12/03 05:32:54;;;;;;;10.13;2.33;;;;;;;4.99;100.00;100182.41;5115629;28;20067;-52
2021/12/03 05:35:23;;;;;;;6.63;2.42;;;;;;;4.97;100.00;100163.22;5114800;28;20063;-51
2021/12/03 05:37:52;;;;;;;7.70;2.40;;;;;;;5.00;100.00;100149.97;5114588;28;20091;-52
2021/12/03 05:40:20;;;;;;;13.25;2.53;;;;;;;4.99;100.00;100169.28;5114577;28;20074;-49
2021/12/03 05:42:51;;;;;;;9.80;2.40;;;;;;;5.08;100.00;100144.34;5114587;28;20051;-52
2021/12/03 05:45:21;;;;;;;11.07;2.83;;;;;;;5.13;100.00;100156.38;5114685;28;20066;-52
2021/12/03 05:47:49;;;;;;;9.00;2.58;;;;;;;5.15;100.00;100136.13;5114945;28;20058;-52
2021/12/03 05:50:18;;;;;;;8.52;3.30;;;;;;;5.20;100.00;100134.13;5114793;28;20090;-52
2021/12/03 05:52:49;;;;;;;10.40;2.58;;;;;;;5.21;100.00;100130.59;5115079;28;20051;-52
2021/12/03 05:55:18;;;;;;;12.02;2.53;;;;;;;5.31;100.00;100132.78;5115396;28;20056;-52
2021/12/03 05:57:47;;;;;;;6.95;2.47;;;;;;;5.28;100.00;100122.41;5115315;28;20070;-50
2021/12/03 06:00:20;;;;;;;8.25;3.15;;;;;;;5.33;100.00;100117.78;5117435;28;20059;-50
2021/12/03 06:02:48;;;;;;;8.40;3.20;;;;;;;5.41;100.00;100120.91;5118337;28;20102;-50
2021/12/03 06:05:16;;;;;;;8.32;2.75;;;;;;;5.46;100.00;100113.63;5118674;27;20146;-52
2021/12/03 06:07:44;;;;;;;10.40;3.05;;;;;;;5.54;100.00;100116.75;5118842;28;20056;-52
2021/12/03 06:10:13;;;;;;;10.88;2.67;;;;;;;5.58;100.00;100105.19;5118749;28;20066;-52
2021/12/03 06:12:43;;;;;;;11.55;2.78;;;;;;;5.59;100.00;100098.97;5119546;28;20477;-52
2021/12/03 06:15:11;;;;;;;8.63;2.85;;;;;;;5.67;100.00;100113.56;5119064;27;20063;-52
2021/12/03 06:17:41;;;;;;;10.77;2.50;;;;;;;5.66;100.00;100109.22;5119502;27;20054;-52
2021/12/03 06:20:10;;;;;;;11.10;2.35;;;;;;;5.71;100.00;100099.31;5118208;27;20525;-51
2021/12/03 06:22:39;;;;;;;11.30;2.45;;;;;;;5.73;100.00;100095.72;5118459;28;20058;-52
2021/12/03 06:25:09;;;;;;;5.53;2.42;;;;;;;5.73;100.00;100086.94;5118838;28;20052;-52
2021/12/03 06:27:38;;;;;;;7.82;2.05;;;;;;;5.75;100.00;100096.47;5118173;28;20071;-52
2021/12/03 06:30:08;;;;;;;8.90;2.45;;;;;;;5.81;100.00;100086.56;5118114;28;20059;-52
2021/12/03 06:32:37;;;;;;;4.13;1.92;;;;;;;5.77;100.00;100083.25;5117927;28;20056;-50
2021/12/03 06:35:09;;;;;;;5.25;2.30;;;;;;;5.81;100.00;100087.41;5118332;28;20130;-51
2021/12/03 06:37:38;;;;;;;5.53;2.05;;;;;;;5.86;100.00;100087.19;5118526;28;20060;-52
2021/12/03 06:40:09;;;;;;;6.40;2.05;;;;;;;5.91;100.00;100085.19;5118904;28;20051;-51
2021/12/03 06:42:37;;;;;;;5.07;1.88;;;;;;;5.90;100.00;100086.97;5119121;28;20062;-52
2021/12/03 06:45:06;;;;;;;3.65;1.63;;;;;;;5.95;100.00;100073.56;5117602;28;20510;-52
2021/12/03 06:47:35;;;;;;;4.70;1.80;;;;;;;5.95;100.00;100063.91;5118195;28;20064;-52
2021/12/03 06:50:04;;;;;;;3.65;1.60;;;;;;;5.99;100.00;100048.00;5117994;28;20052;-51
2021/12/03 06:52:34;;;;;;;4.78;1.80;;;;;;;6.01;100.00;100046.13;5117775;28;20056;-52
2021/12/03 06:55:04;;;;;;;4.85;1.60;;;;;;;5.98;100.00;100052.38;5118748;28;20060;-52
2021/12/03 06:57:32;;;;;;;4.03;1.58;;;;;;;6.00;100.00;100044.41;5117575;28;20055;-53
2021/12/03 07:00:00;;;;;;;2.88;1.60;;;;;;;6.04;100.00;100051.25;5117735;28;20417;-52
2021/12/03 07:02:28;;;;;;;3.92;1.50;;;;;;;6.02;100.00;100056.59;5117467;28;20056;-50
2021/12/03 07:04:57;;;;;;;3.15;1.45;;;;;;;6.12;100.00;100054.34;5117250;27;20098;-52
2021/12/03 07:07:25;;;;;;;4.90;1.70;;;;;;;6.18;100.00;100053.16;5117467;28;20071;-51
2021/12/03 07:09:55;;;;;;;3.17;1.70;;;;;;;6.22;100.00;100049.44;5117092;28;20408;-52
2021/12/03 07:12:24;;;;;;;3.78;1.60;;;;;;;6.21;100.00;100038.06;5117022;28;20055;-51
2021/12/03 07:14:52;;;;;;;3.35;1.30;;;;;;;6.30;100.00;100037.59;5116941;28;20056;-50
2021/12/03 07:17:20;;;;;;;3.30;1.70;;;;;;;6.38;100.00;100044.25;5117472;28;20105;-52
2021/12/03 07:19:48;;;;;;;4.25;1.40;;;;;;;6.44;100.00;100046.53;5117207;28;20060;-50
2021/12/03 07:22:16;;;;;;;3.38;1.60;;;;;;;6.50;100.00;100033.06;5117897;28;20060;-52
2021/12/03 07:24:45;;;;;;;3.10;1.60;;;;;;;6.56;100.00;100031.91;5116881;28;20495;-50
2021/12/03 07:27:14;;;;;;;4.47;1.30;;;;;;;6.62;100.00;100016.59;5117857;28;20056;-49
2021/12/03 07:29:46;;;;;;;5.10;1.50;;;;;;;6.65;100.00;100016.41;5117892;28;20411;-52
2021/12/03 07:32:16;;;;;;;2.70;1.30;;;;;;;6.63;100.00;100005.13;5117908;28;20055;-50
2021/12/03 07:34:45;;;;;;;2.28;1.33;;;;;;;6.74;100.00;100007.19;5116952;28;20109;-52
2021/12/03 07:37:13;;;;;;;2.35;1.42;;;;;;;6.78;100.00;100005.22;5116805;28;20410;-50
2021/12/03 07:39:44;;;;;;;2.53;1.35;;;;;;;6.80;100.00;99995.44;5117131;28;20438;-50
2021/12/03 07:42:14;;;;;;;2.40;1.33;;;;;;;6.95;100.00;99981.41;5117576;28;20056;-52
2021/12/03 07:44:42;;;;;;;3.40;1.10;;;;;;;7.05;100.00;99987.88;5116665;28;20419;-50
2021/12/03 07:47:10;;;;;;;1.98;1.13;;;;;;;7.12;100.00;99991.03;5116867;28;20091;-52
2021/12/03 07:49:40;;;;;;;2.10;1.10;;;;;;;7.20;100.00;100004.63;5116578;28;20058;-51
2021/12/03 07:52:11;;;;;;;1.98;1.20;;;;;;;7.28;100.00;99998.94;5117353;28;20070;-52
2021/12/03 07:54:40;;;;;;;3.15;1.20;;;;;;;7.32;100.00;99995.19;5116332;28;20066;-52
2021/12/03 07:57:08;;;;;;;2.40;1.13;;;;;;;7.43;100.00;100016.53;5116780;28;20052;-52
2021/12/03 07:59:38;;;;;;;2.03;1.33;;;;;;;7.54;100.00;100023.00;5116310;28;20056;-52
2021/12/03 08:02:06;;;;;;;2.38;1.05;;;;;;;7.65;100.00;100017.09;5116273;28;20055;-52
2021/12/03 08:04:35;;;;;;;1.40;0.95;;;;;;;7.69;100.00;99997.50;5116832;28;20055;-51
2021/12/03 08:07:04;;;;;;;1.80;1.02;;;;;;;7.77;100.00;99990.81;5115823;28;20051;-50
2021/12/03 08:09:32;;;;;;;1.58;0.90;;;;;;;7.85;100.00;99981.59;5112182;28;20058;-52
2021/12/03 08:12:00;;;;;;;4.00;1.00;;;;;;;7.90;100.00;99979.53;5115106;28;20056;-50
2021/12/03 08:14:28;;;;;;;2.50;1.00;;;;;;;7.93;100.00;99979.34;5116983;28;20051;-52
2021/12/03 08:16:58;;;;;;;1.30;0.77;;;;;;;7.99;100.00;99989.56;5115822;27;20051;-52
2021/12/03 08:19:26;;;;;;;3.53;0.90;;;;;;;8.01;100.00;99979.75;5115453;28;20051;-49
2021/12/03 08:21:54;;;;;;;1.38;0.80;;;;;;;8.06;100.00;99980.31;5115256;28;20503;-52
2021/12/03 08:24:23;;;;;;;1.67;0.93;;;;;;;8.11;100.00;99975.63;5115778;28;20056;-52
2021/12/03 08:26:51;;;;;;;0.93;0.60;;;;;;;8.20;100.00;99990.06;5116371;28;20071;-51
2021/12/03 08:29:19;;;;;;;0.75;0.57;;;;;;;8.29;100.00;99986.88;5115835;28;20055;-52
2021/12/03 08:31:47;;;;;;;1.10;0.65;;;;;;;8.35;100.00;99990.91;5115792;28;20515;-50
2021/12/03 08:34:17;;;;;;;1.00;0.63;;;;;;;8.42;100.00;99978.19;5114907;28;20052;-51
2021/12/03 08:36:45;;;;;;;1.35;0.80;;;;;;;8.45;100.00;99965.66;5116085;28;20056;-51
2021/12/03 08:39:14;;;;;;;1.05;0.70;;;;;;;8.49;100.00;99966.31;5115641;28;20052;-51
2021/12/03 08:41:42;;;;;;;2.08;0.70;;;;;;;8.58;100.00;99965.75;5115115;28;20064;-50
2021/12/03 08:44:11;;;;;;;0.77;0.52;;;;;;;8.65;100.00;99968.84;5115754;28;20419;-53
2021/12/03 08:46:39;;;;;;;1.48;0.70;;;;;;;8.80;100.00;99961.75;5115482;28;20052;-50
2021/12/03 08:49:12;;;;;;;1.75;0.68;;;;;;;8.87;100.00;99971.84;5116282;28;20503;-52
2021/12/03 08:52:09;;;;;;;1.63;0.80;;;;;;;8.97;100.00;99968.63;5115161;28;20063;-50
2021/12/03 08:54:50;;;;;;;0.82;0.65;;;;;;;9.04;100.00;99956.69;5114831;28;20052;-51
2021/12/03 08:57:21;;;;;;;0.80;0.55;;;;;;;9.09;100.00;99962.53;5115965;28;20056;-51
2021/12/03 08:59:52;;;;;;;1.00;0.63;;;;;;;9.10;100.00;99967.72;5115620;28;20060;-52
2021/12/03 09:02:20;;;;;;;0.65;0.60;;;;;;;9.17;100.00;99964.69;5116295;28;20051;-50
2021/12/03 09:04:49;;;;;;;0.85;0.60;;;;;;;9.22;100.00;99971.38;5116000;28;20052;-53
2021/12/03 09:07:18;;;;;;;0.77;0.50;;;;;;;9.14;100.00;99967.53;5115015;28;20487;-51
2021/12/03 09:09:47;;;;;;;2.92;0.70;;;;;;;9.27;100.00;99982.50;5115103;28;20071;-53
2021/12/03 09:12:15;;;;;;;0.90;0.60;;;;;;;9.29;100.00;99982.41;5114989;28;20055;-52
2021/12/03 09:14:45;;;;;;;1.23;0.77;;;;;;;9.34;100.00;99968.88;5114983;28;20051;-50
2021/12/03 09:17:24;;;;;;;1.50;0.63;;;;;;;9.36;100.00;99961.69;5114705;28;20070;-51
2021/12/03 09:19:57;;;;;;;1.30;0.70;;;;;;;9.48;100.00;99951.13;5114671;28;20052;-52
2021/12/03 09:22:35;;;;;;;1.83;0.82;;;;;;;9.54;100.00;99960.47;5115974;28;20059;-52
2021/12/03 09:25:04;;;;;;;2.05;0.68;;;;;;;9.63;100.00;99956.34;5115691;28;20052;-51
2021/12/03 09:27:32;;;;;;;1.20;0.60;;;;;;;9.70;100.00;99954.13;5115127;28;20402;-52
2021/12/03 09:30:02;;;;;;;1.05;0.70;;;;;;;9.76;100.00;99948.44;5114785;28;20060;-51
2021/12/03 09:32:32;;;;;;;5.70;0.70;;;;;;;9.82;100.00;99942.72;5114837;28;20059;-52
2021/12/03 09:35:00;;;;;;;1.70;0.95;;;;;;;9.87;100.00;99945.91;5114490;28;20048;-50
2021/12/03 09:37:30;;;;;;;2.97;1.40;;;;;;;9.91;100.00;99942.09;5114908;28;20063;-52
2021/12/03 09:40:04;;;;;;;1.45;1.00;;;;;;;9.99;100.00;99945.06;5114376;28;20102;-52
2021/12/03 09:42:34;;;;;;;2.03;1.10;;;;;;;10.07;100.00;99935.72;5115179;28;20077;-51
2021/12/03 09:45:04;;;;;;;1.45;0.95;;;;;;;10.16;100.00;99924.50;5114233;28;20069;-50
2021/12/03 09:47:33;;;;;;;1.92;0.98;;;;;;;10.22;100.00;99916.97;5114678;28;20538;-51
2021/12/03 09:50:05;;;;;;;1.50;1.00;;;;;;;10.31;100.00;99910.19;5114930;28;20063;-51
2021/12/03 09:52:42;;;;;;;0.93;0.80;;;;;;;10.38;100.00;99911.47;5115297;28;20064;-50
2021/12/03 09:55:12;;;;;;;1.85;0.88;;;;;;;10.49;100.00;99915.16;5114251;28;20051;-49
2021/12/03 09:57:44;;;;;;;1.48;0.80;;;;;;;10.61;100.00;99903.69;5114730;28;20064;-51
2021/12/03 10:00:22;;;;;;;1.35;0.80;;;;;;;10.71;100.00;99895.94;5114237;28;20062;-52
2021/12/03 10:03:21;;;;;;;0.65;0.50;;;;;;;10.84;100.00;99903.81;5114705;28;20503;-52
2021/12/03 10:11:51;;;;;;;0.75;0.43;;;;;;;11.06;100.00;99888.03;5115594;28;20425;-51
2021/12/03 10:14:35;;;;;;;1.85;0.98;;;;;;;11.04;100.00;99879.31;5114107;28;20052;-52
2021/12/03 10:20:03;;;;;;;1.33;0.80;;;;;;;11.12;100.00;99876.94;5114695;28;20052;-50
2021/12/03 10:25:44;;;;;;;;;;;;;;;11.10;100.00;99893.97;5112029;28;20055;-52
2021/12/03 10:37:18;;;;;;;0.65;0.60;;;;;;;11.27;100.00;99890.88;5112469;28;20055;-50
2021/12/03 10:39:55;;;;;;;0.88;0.70;;;;;;;11.33;100.00;99889.56;5113687;28;20533;-50
2021/12/03 10:42:37;;;;;;;0.98;0.65;;;;;;;11.35;100.00;99871.72;5113292;28;20055;-51
2021/12/03 10:45:18;;;;;;;0.90;0.70;;;;;;;11.49;100.00;99879.47;5115137;28;20059;-51
2021/12/03 10:48:01;;;;;;;1.05;0.60;;;;;;;11.46;100.00;99866.44;5117631;28;20059;-50
2021/12/03 10:53:31;;;;;;;1.85;0.77;;;;;;;11.73;100.00;99861.78;5111743;28;20071;-52
2021/12/03 10:59:05;;;;;;;1.67;0.90;;;;;;;11.78;100.00;99841.88;5118810;28;20052;-50
2021/12/03 11:30:17;;;;;;;;;;;;;;;12.00;100.00;99787.94;5117957;28;20052;-50
2021/12/03 14:07:53;;;;;;;1.20;0.68;;;;;;;12.52;100.00;99649.84;5071298;28;20086;-50
2021/12/03 14:36:47;;;;;;;1.98;0.60;;;;;;;12.22;100.00;99606.25;5118962;28;20407;-52
2021/12/03 14:39:37;;;;;;;2.63;0.60;;;;;;;12.22;100.00;99619.53;5118105;28;20062;-50
2021/12/03 14:45:09;;;;;;;1.08;0.60;;;;;;;12.14;100.00;99614.03;5100052;28;20067;-50
2021/12/03 14:53:38;;;;;;;4.72;1.00;;;;;;;12.01;100.00;99608.03;5117708;28;20135;-50
2021/12/03 14:56:11;;;;;;;3.58;0.80;;;;;;;11.96;100.00;99611.06;5117462;28;20146;-50
2021/12/03 14:58:48;;;;;;;0.80;0.60;;;;;;;11.97;100.00;99606.56;5118045;28;20051;-50
2021/12/03 15:01:22;;;;;;;1.85;0.90;;;;;;;11.97;100.00;99604.78;5118661;28;20062;-51
2021/12/03 15:06:36;;;;;;;1.10;0.80;;;;;;;11.88;100.00;99603.69;5114565;28;20093;-51
2021/12/03 15:09:11;;;;;;;2.65;0.70;;;;;;;11.85;100.00;99606.59;5117109;28;20055;-52
2021/12/03 15:25:29;;;;;;;4.25;1.00;;;;;;;11.63;100.00;99619.91;5101603;28;20067;-51
2021/12/03 15:31:00;;;;;;;3.30;1.38;;;;;;;11.51;100.00;99606.66;5090895;28;20052;-50
2021/12/03 15:33:37;;;;;;;2.05;0.90;;;;;;;11.51;100.00;99598.69;5116717;28;20055;-52
2021/12/03 15:36:12;;;;;;;2.50;0.70;;;;;;;11.59;100.00;99603.38;5116734;28;20051;-51
2021/12/03 16:03:54;;;;;;;2.17;0.77;;;;;;;11.26;100.00;99562.66;5116348;28;20070;-52
2021/12/03 16:06:39;;;;;;;2.50;0.60;;;;;;;11.28;100.00;99557.22;5116352;28;20064;-49
2021/12/03 16:09:32;;;;;;;1.52;0.77;;;;;;;11.36;100.00;99565.41;5116285;28;20537;-51
2021/12/03 16:12:07;;;;;;;5.13;1.02;;;;;;;11.23;100.00;99554.94;5117010;28;20402;-50
2021/12/03 16:20:27;;;;;;;1.95;0.82;;;;;;;11.28;100.00;99557.22;5116493;28;20082;-52
2021/12/03 16:45:27;;;;;;;4.68;1.63;;;;;;;11.14;100.00;99534.44;5115215;28;20060;-50
2021/12/03 16:53:27;;;;;;;7.05;2.67;;;;;;;11.04;100.00;99521.03;5071131;28;20056;-49
2021/12/03 16:56:16;;;;;;;4.88;2.05;;;;;;;11.02;100.00;99514.19;5116130;28;20135;-52
2021/12/03 16:58:44;;;;;;;6.47;1.52;;;;;;;11.03;100.00;99499.94;5116211;28;20055;-50
2021/12/03 17:01:18;;;;;;;6.25;1.85;;;;;;;11.06;100.00;99499.69;5115486;28;20058;-51
2021/12/03 17:03:51;;;;;;;2.85;1.02;;;;;;;11.07;100.00;99496.09;5114851;28;20586;-52